Terminal Aerodrome Forecast
Issued by NWS Nashville, TN

Home | Current Version | Previous Version | Text Only | Print | Product List | Glossary On
Versions: 1 2 3 4 5 6 7 8 9 10 11 12 13 14 15 16 17 18 19 20 21 22 23
000
FTUS44 KOHX 301742
TAFBNA
TAF
KBNA 301742Z 3018/3118 26005KT P6SM SCT035 BKN250
     FM302200 29004KT P6SM SCT035 BKN250
     FM310800 00000KT 4SM BR SKC
     FM310900 00000KT 2SM BR SCT011
      TEMPO 3109/3113 4SM BR BKN011
     FM311400 VRB03KT P6SM SCT020 SCT250=

USA.gov is the U.S. government's official web portal to all federal, state and local government web resources and services.